createdAt,value
2023-05-22T19:12:17.529Z,14.82
2023-05-22T19:14:44.812Z,14.84
2023-05-22T19:17:12.502Z,14.89
2023-05-22T19:19:39.876Z,14.93
2023-05-22T19:22:06.934Z,14.97
2023-05-22T19:24:34.080Z,15.02
2023-05-22T19:27:01.191Z,15.10
2023-05-22T19:29:28.457Z,15.17
2023-05-22T19:31:58.841Z,15.20
2023-05-22T19:34:26.217Z,15.21
2023-05-22T19:36:57.645Z,15.26
2023-05-22T19:39:25.385Z,15.34
2023-05-22T19:41:52.900Z,15.34
2023-05-22T19:44:20.464Z,15.38
2023-05-22T19:46:48.296Z,15.40
2023-05-22T19:49:15.734Z,15.43
2023-05-22T19:51:43.617Z,15.45
2023-05-22T19:54:10.796Z,15.45
2023-05-22T19:56:38.606Z,15.43
2023-05-22T19:59:05.958Z,15.43
2023-05-22T20:01:33.133Z,15.45
2023-05-22T20:04:01.293Z,15.46
2023-05-22T20:06:31.672Z,15.48
2023-05-22T20:08:59.113Z,15.44
2023-05-22T20:11:28.437Z,15.42
2023-05-22T20:13:58.666Z,15.40
2023-05-22T20:16:28.546Z,15.38
2023-05-22T20:18:56.825Z,15.36
2023-05-22T20:21:24.100Z,15.34
2023-05-22T20:23:51.540Z,15.31
2023-05-22T20:26:20.024Z,15.36
2023-05-22T20:28:47.300Z,15.40
2023-05-22T20:31:14.563Z,15.40
2023-05-22T20:33:41.696Z,15.44
2023-05-22T20:36:09.690Z,15.44
2023-05-22T20:38:36.963Z,15.46
2023-05-22T20:41:08.673Z,15.46
2023-05-22T20:43:36.960Z,15.51
2023-05-22T20:46:04.633Z,15.54
2023-05-22T20:48:31.796Z,15.56
2023-05-22T20:50:58.801Z,15.63
2023-05-22T20:53:26.171Z,15.67
2023-05-22T20:55:53.457Z,15.71
2023-05-22T20:58:20.554Z,15.71
2023-05-22T21:00:49.611Z,15.76
2023-05-22T21:03:17.868Z,15.79
2023-05-22T21:05:45.089Z,15.81
2023-05-22T21:08:12.293Z,15.82
2023-05-22T21:10:39.546Z,15.83
2023-05-22T21:13:07.013Z,15.80
2023-05-22T21:15:33.980Z,15.85
2023-05-22T21:18:01.206Z,15.85
2023-05-22T21:20:28.350Z,15.86
2023-05-22T21:22:55.495Z,15.87
2023-05-22T21:25:22.506Z,15.85
2023-05-22T21:27:49.678Z,15.85
2023-05-22T21:30:16.787Z,15.84
2023-05-22T21:32:44.059Z,15.81
2023-05-22T21:35:11.316Z,15.81
2023-05-22T21:37:40.078Z,15.78
2023-05-22T21:40:09.033Z,15.77
2023-05-22T21:42:45.928Z,15.72
2023-05-22T21:45:14.533Z,15.71
2023-05-22T21:47:41.777Z,15.67
2023-05-22T21:50:09.174Z,15.63
2023-05-22T21:52:36.297Z,15.60
2023-05-22T21:55:04.133Z,15.59
2023-05-22T21:57:31.306Z,15.55
2023-05-22T21:59:58.443Z,15.50
2023-05-22T22:02:25.641Z,15.48
2023-05-22T22:04:52.861Z,15.41
2023-05-22T22:07:19.910Z,15.39
2023-05-22T22:09:46.940Z,15.37
2023-05-22T22:12:14.001Z,15.29
2023-05-22T22:14:41.181Z,15.27
2023-05-22T22:17:08.323Z,15.25
2023-05-22T22:19:36.312Z,15.20
2023-05-22T22:22:03.674Z,15.16
2023-05-22T22:24:30.681Z,15.09
2023-05-22T22:26:57.723Z,15.05
2023-05-22T22:29:24.754Z,14.99
2023-05-22T22:31:52.987Z,14.94
2023-05-22T22:34:20.271Z,14.93
2023-05-22T22:36:47.639Z,14.89
2023-05-22T22:39:14.699Z,14.84
2023-05-22T22:41:42.998Z,14.82
2023-05-22T22:44:11.332Z,14.79
2023-05-22T22:46:38.486Z,14.76
2023-05-22T22:49:05.647Z,14.74
2023-05-22T22:51:32.763Z,14.71
2023-05-22T22:53:59.952Z,14.68
2023-05-22T22:56:30.199Z,14.65
2023-05-22T22:58:57.485Z,14.62
2023-05-22T23:01:24.891Z,14.60
2023-05-22T23:03:52.271Z,14.58
2023-05-22T23:06:19.654Z,14.59
2023-05-22T23:08:46.750Z,14.55
2023-05-22T23:11:13.801Z,14.54
2023-05-22T23:13:43.401Z,14.52
2023-05-22T23:16:10.651Z,14.50
2023-05-22T23:18:37.931Z,14.45
2023-05-22T23:21:04.950Z,14.44
2023-05-22T23:23:32.126Z,14.42
2023-05-22T23:25:59.278Z,14.40
2023-05-22T23:28:26.514Z,14.38
2023-05-22T23:30:53.586Z,14.36
2023-05-22T23:33:21.392Z,14.33
2023-05-22T23:35:48.542Z,14.27
2023-05-22T23:38:15.665Z,14.27
2023-05-22T23:40:42.679Z,14.24
2023-05-22T23:43:09.755Z,14.20
2023-05-22T23:45:36.807Z,14.18
2023-05-22T23:48:04.367Z,14.17
2023-05-22T23:50:31.409Z,14.15
2023-05-22T23:52:58.449Z,14.13
2023-05-22T23:55:25.531Z,14.11
2023-05-22T23:57:52.668Z,14.09
